createdAt,value
2023-03-17T00:01:56.001Z,101045.38
2023-03-17T00:04:25.087Z,101055.44
2023-03-17T00:06:52.959Z,101042.44
2023-03-17T00:09:20.638Z,101032.41
2023-03-17T00:11:47.887Z,101020.47
2023-03-17T00:14:14.669Z,101040.38
2023-03-17T00:16:44.453Z,101052.28
2023-03-17T00:19:21.869Z,101053.88
2023-03-17T00:21:49.529Z,101051.72
2023-03-17T00:24:16.372Z,101047.47
2023-03-17T00:26:43.776Z,101043.50
2023-03-17T00:29:10.650Z,101033.16
2023-03-17T00:31:39.215Z,101035.28
2023-03-17T00:34:08.033Z,101039.28
2023-03-17T00:36:35.593Z,101025.75
2023-03-17T00:39:02.234Z,101027.63
2023-03-17T00:41:29.578Z,101027.88
2023-03-17T00:43:57.535Z,101031.59
2023-03-17T00:46:28.907Z,101032.94
2023-03-17T00:48:55.683Z,101028.69
2023-03-17T00:51:23.407Z,101026.31
2023-03-17T00:53:50.914Z,101020.47
2023-03-17T00:56:20.689Z,101030.25
2023-03-17T00:58:48.515Z,101032.38
2023-03-17T01:01:15.987Z,101025.75
2023-03-17T01:03:42.699Z,101020.72
2023-03-17T01:06:12.529Z,101020.19
2023-03-17T01:08:40.954Z,101003.50
2023-03-17T01:11:14.778Z,100985.50
2023-03-17T01:13:41.944Z,100984.16
2023-03-17T01:19:05.847Z,100989.75
2023-03-17T01:21:32.670Z,101003.50
2023-03-17T01:24:00.522Z,100999.81
2023-03-17T01:26:27.426Z,101000.34
2023-03-17T01:28:54.924Z,101005.91
2023-03-17T01:31:23.110Z,101008.56
2023-03-17T01:33:49.876Z,101004.56
2023-03-17T01:36:17.852Z,101000.06
2023-03-17T01:38:48.271Z,101002.72
2023-03-17T01:41:14.924Z,100993.19
2023-03-17T01:43:41.719Z,100993.19
2023-03-17T01:46:17.184Z,100995.31
2023-03-17T01:48:55.835Z,100985.75
2023-03-17T01:51:32.127Z,100984.97
2023-03-17T01:54:01.560Z,100987.09
2023-03-17T01:56:29.018Z,100976.75
2023-03-17T01:58:58.316Z,100986.81
2023-03-17T02:01:30.742Z,100980.19
2023-03-17T02:03:58.588Z,100968.03
2023-03-17T02:06:26.367Z,100969.06
2023-03-17T02:08:53.817Z,100965.91
2023-03-17T02:11:21.222Z,100960.34
2023-03-17T02:13:48.098Z,100952.66
2023-03-17T02:16:16.428Z,100948.69
2023-03-17T02:18:44.093Z,100957.94
2023-03-17T02:21:31.906Z,100945.00
2023-03-17T02:24:02.496Z,100953.19
2023-03-17T02:26:33.172Z,100951.88
2023-03-17T02:28:59.753Z,100958.22
2023-03-17T02:31:27.488Z,100958.47
2023-03-17T02:33:54.695Z,100943.91
2023-03-17T02:36:22.068Z,100946.03
2023-03-17T02:38:49.171Z,100944.47
2023-03-17T02:41:15.874Z,100948.94
2023-03-17T02:43:42.960Z,100944.47
2023-03-17T02:46:09.840Z,100931.22
2023-03-17T02:48:37.499Z,100935.97
2023-03-17T02:51:04.922Z,100937.81
2023-03-17T02:53:31.588Z,100939.66
2023-03-17T02:55:58.503Z,100936.25
2023-03-17T02:58:25.187Z,100933.59
2023-03-17T03:00:51.841Z,100935.44
2023-03-17T03:03:18.510Z,100940.75
2023-03-17T03:05:45.576Z,100943.38
2023-03-17T03:08:12.292Z,100950.25
2023-03-17T03:13:33.352Z,100942.06
2023-03-17T03:16:00.546Z,100940.19
2023-03-17T03:18:27.340Z,100947.34
2023-03-17T03:23:47.960Z,100941.00
2023-03-17T03:26:14.701Z,100936.50
2023-03-17T03:28:41.708Z,100927.50
2023-03-17T03:31:08.740Z,100939.94
2023-03-17T03:33:35.671Z,100946.81
2023-03-17T03:36:02.548Z,100947.63
2023-03-17T03:38:29.423Z,100946.81
2023-03-17T03:40:56.146Z,100945.00
2023-03-17T03:43:24.066Z,100950.53
2023-03-17T03:45:51.926Z,100950.53
2023-03-17T03:48:19.131Z,100959.00
2023-03-17T03:50:50.820Z,100954.53
2023-03-17T03:53:17.635Z,100953.19
2023-03-17T03:55:44.176Z,100953.19
2023-03-17T03:58:11.405Z,100953.19
2023-03-17T04:00:38.004Z,100950.28
2023-03-17T04:03:04.655Z,100947.66
2023-03-17T04:05:31.242Z,100951.06
2023-03-17T04:07:57.673Z,100939.41
2023-03-17T04:10:24.204Z,100946.31
2023-03-17T04:12:51.220Z,100952.66
2023-03-17T04:15:19.880Z,100948.19
2023-03-17T04:17:47.556Z,100957.94
2023-03-17T04:20:16.011Z,100959.03
2023-03-17T04:22:43.056Z,100969.59
2023-03-17T04:25:11.580Z,100967.75
2023-03-17T04:27:38.303Z,100965.88
2023-03-17T04:30:05.852Z,100960.59
2023-03-17T04:32:32.508Z,100964.31
2023-03-17T04:34:59.192Z,100951.59
2023-03-17T04:37:26.443Z,100958.75
2023-03-17T04:39:53.411Z,100948.69
2023-03-17T04:42:19.982Z,100950.81
2023-03-17T04:44:47.114Z,100957.69
2023-03-17T04:47:13.708Z,100961.13
2023-03-17T04:49:40.501Z,100966.41
2023-03-17T04:52:07.527Z,100973.56
2023-03-17T04:54:34.184Z,100963.50
2023-03-17T04:57:00.750Z,100965.66
2023-03-17T04:59:27.346Z,100961.41
2023-03-17T05:01:54.121Z,100963.78
2023-03-17T05:04:31.259Z,100966.69
2023-03-17T05:06:58.482Z,100955.06
2023-03-17T05:09:26.711Z,100961.16
2023-03-17T05:11:53.236Z,100963.00
2023-03-17T05:14:20.198Z,100961.16
2023-03-17T05:16:48.439Z,100972.53
2023-03-17T05:19:15.423Z,100978.88
2023-03-17T05:21:42.688Z,100969.88
2023-03-17T05:24:09.578Z,100972.78
2023-03-17T05:26:36.424Z,100962.22
2023-03-17T05:29:03.024Z,100956.91
2023-03-17T05:31:31.217Z,100961.13
2023-03-17T05:33:58.825Z,100948.19
2023-03-17T05:36:25.343Z,100949.75
2023-03-17T05:38:52.331Z,100956.66
2023-03-17T05:41:19.090Z,100944.47
2023-03-17T05:43:46.143Z,100947.09
2023-03-17T05:46:13.125Z,100952.66
2023-03-17T05:48:39.619Z,100935.97
2023-03-17T05:51:06.383Z,100926.19
2023-03-17T05:53:33.111Z,100920.09
2023-03-17T05:55:59.609Z,100911.38
2023-03-17T05:58:26.702Z,100918.53
2023-03-17T06:00:53.666Z,100923.00
2023-03-17T06:03:21.481Z,100916.66
2023-03-17T06:05:48.450Z,100915.59
2023-03-17T06:08:15.296Z,100922.75
2023-03-17T06:10:43.135Z,100923.53
2023-03-17T06:13:09.771Z,100920.63
2023-03-17T06:15:36.936Z,100932.81
2023-03-17T06:18:05.211Z,100925.66
2023-03-17T06:20:38.133Z,100924.34
2023-03-17T06:23:06.020Z,100921.69
2023-03-17T06:25:35.577Z,100934.94
2023-03-17T06:28:04.029Z,100926.72
2023-03-17T06:30:33.181Z,100923.25
2023-03-17T06:33:00.515Z,100936.25
2023-03-17T06:35:27.587Z,100933.59
2023-03-17T06:37:54.789Z,100933.84
2023-03-17T06:40:21.434Z,100934.38
2023-03-17T06:42:48.526Z,100950.81
2023-03-17T06:45:16.069Z,100955.03
2023-03-17T06:47:42.797Z,100947.91
2023-03-17T06:50:11.564Z,100971.75
2023-03-17T06:52:39.730Z,100966.97
2023-03-17T06:55:07.810Z,100954.53
2023-03-17T06:57:35.152Z,100950.53
2023-03-17T07:00:01.935Z,100947.38
2023-03-17T07:02:28.738Z,100956.91
2023-03-17T07:04:57.963Z,100955.31
2023-03-17T07:07:25.189Z,100952.41
2023-03-17T07:09:52.792Z,100948.41
2023-03-17T07:12:20.152Z,100944.19
2023-03-17T07:14:46.869Z,100939.16
2023-03-17T07:17:14.703Z,100947.34
2023-03-17T07:19:42.372Z,100941.53
2023-03-17T07:22:12.158Z,100943.63
2023-03-17T07:24:39.788Z,100943.88
2023-03-17T07:27:06.379Z,100949.44
2023-03-17T07:29:34.090Z,100951.56
2023-03-17T07:32:01.485Z,100942.84
2023-03-17T07:34:28.416Z,100945.47
2023-03-17T07:36:55.355Z,100943.31
2023-03-17T07:39:22.000Z,100947.81
2023-03-17T07:41:52.976Z,100951.22
2023-03-17T07:44:19.810Z,100953.56
2023-03-17T07:46:46.922Z,100954.84
2023-03-17T07:49:14.057Z,100951.31
2023-03-17T07:51:43.324Z,100951.25
2023-03-17T07:54:14.819Z,100953.59
2023-03-17T07:56:42.509Z,100951.94
2023-03-17T07:59:11.067Z,100952.44
2023-03-17T08:01:38.418Z,100958.97
2023-03-17T08:04:05.919Z,100954.94
2023-03-17T08:06:32.667Z,100950.88
2023-03-17T08:08:59.731Z,100945.56
2023-03-17T08:11:29.240Z,100939.91
2023-03-17T08:13:56.137Z,100943.28
2023-03-17T08:16:23.216Z,100935.22
2023-03-17T08:18:50.372Z,100943.34
2023-03-17T08:21:17.737Z,100933.47
2023-03-17T08:23:44.632Z,100942.16
2023-03-17T08:26:11.396Z,100942.56
2023-03-17T08:28:38.293Z,100940.06
2023-03-17T08:31:14.410Z,100937.06
2023-03-17T08:33:42.551Z,100939.09
2023-03-17T08:36:11.320Z,100928.34
2023-03-17T08:38:39.611Z,100930.38
2023-03-17T08:41:09.115Z,100932.41
2023-03-17T08:43:37.421Z,100935.19
2023-03-17T08:49:03.316Z,100954.94
2023-03-17T08:52:02.935Z,100929.72
2023-03-17T08:54:29.640Z,100937.06
2023-03-17T08:56:57.641Z,100936.78
2023-03-17T08:59:24.233Z,100932.38
2023-03-17T09:03:28.630Z,100930.56
2023-03-17T09:06:33.392Z,100931.38
2023-03-17T09:09:00.461Z,100937.75
2023-03-17T09:14:24.917Z,100935.00
2023-03-17T09:16:52.279Z,100931.97
2023-03-17T09:19:26.184Z,100923.28
2023-03-17T09:21:58.954Z,100923.41
2023-03-17T09:24:29.263Z,100937.44
2023-03-17T09:27:00.103Z,100941.28
2023-03-17T09:29:27.304Z,100933.69
2023-03-17T09:31:57.020Z,100932.50
2023-03-17T09:34:25.179Z,100935.06
2023-03-17T09:36:53.991Z,100936.75
2023-03-17T09:39:24.163Z,100933.59
2023-03-17T09:42:06.717Z,100941.88
2023-03-17T09:44:58.081Z,100952.75
2023-03-17T09:47:43.056Z,100950.34
2023-03-17T09:50:15.972Z,100949.78
2023-03-17T09:52:43.238Z,100955.81
2023-03-17T09:55:25.270Z,100943.94
2023-03-17T09:57:54.356Z,100953.09
2023-03-17T10:00:26.765Z,100951.19
2023-03-17T10:02:55.040Z,100951.38
2023-03-17T10:05:31.548Z,100954.56
2023-03-17T10:08:30.063Z,100952.66
2023-03-17T10:11:35.729Z,100949.56
2023-03-17T10:14:05.361Z,100959.03
2023-03-17T10:16:50.961Z,100959.28
2023-03-17T10:19:32.666Z,100954.41
2023-03-17T10:22:22.046Z,100959.47
2023-03-17T10:24:54.892Z,100964.00
2023-03-17T10:27:21.882Z,100966.56
2023-03-17T10:29:48.869Z,100967.84
2023-03-17T10:32:16.120Z,100979.31
2023-03-17T10:34:43.851Z,100982.84
2023-03-17T10:37:23.346Z,100983.63
2023-03-17T10:39:56.259Z,100982.13
2023-03-17T10:42:30.280Z,100986.72
2023-03-17T10:45:01.979Z,100981.88
2023-03-17T10:47:38.429Z,101002.00
2023-03-17T10:50:25.389Z,101001.13
2023-03-17T10:53:00.755Z,100993.72
2023-03-17T10:58:43.556Z,100982.97
2023-03-17T11:01:20.200Z,100980.06
2023-03-17T11:03:47.712Z,100979.13
2023-03-17T11:06:19.376Z,100974.16
2023-03-17T11:08:53.756Z,100964.69
2023-03-17T11:11:26.310Z,100961.91
2023-03-17T11:14:16.990Z,100956.56
2023-03-17T11:16:57.595Z,100955.00
2023-03-17T11:19:43.590Z,100955.47
2023-03-17T11:22:15.120Z,100956.44
2023-03-17T11:25:06.429Z,100944.63
2023-03-17T11:27:36.139Z,100948.72
2023-03-17T11:30:28.159Z,100949.50
2023-03-17T11:33:11.162Z,100937.03
2023-03-17T11:36:10.848Z,100933.72
2023-03-17T11:39:00.593Z,100934.03
2023-03-17T11:41:58.450Z,100930.56
2023-03-17T11:44:56.795Z,100931.81
2023-03-17T11:47:51.374Z,100937.16
2023-03-17T11:53:57.812Z,100937.25
2023-03-17T11:56:37.082Z,100930.94
2023-03-17T11:59:11.973Z,100936.47
2023-03-17T12:04:58.670Z,100938.63
2023-03-17T12:07:31.609Z,100946.06
2023-03-17T12:10:12.658Z,100943.66
2023-03-17T12:12:47.405Z,100937.81
2023-03-17T12:15:29.792Z,100932.41
2023-03-17T12:18:04.413Z,100923.38
2023-03-17T12:23:52.861Z,100906.75
2023-03-17T12:26:41.440Z,100900.91
2023-03-17T12:29:19.318Z,100906.28
2023-03-17T12:31:52.555Z,100899.63
2023-03-17T12:34:28.694Z,100902.25
2023-03-17T12:36:55.738Z,100891.66
2023-03-17T12:39:33.631Z,100890.97
2023-03-17T12:42:22.849Z,100885.91
2023-03-17T12:45:27.531Z,100883.47
2023-03-17T12:48:21.956Z,100887.09
2023-03-17T12:51:17.642Z,100882.00
2023-03-17T12:53:49.747Z,100884.16
2023-03-17T12:56:30.468Z,100891.75
2023-03-17T12:59:04.860Z,100892.06
2023-03-17T13:01:38.970Z,100885.69
2023-03-17T13:04:18.195Z,100888.06
2023-03-17T13:06:48.302Z,100887.44
2023-03-17T13:09:33.196Z,100882.16
2023-03-17T13:12:01.848Z,100896.50
2023-03-17T13:14:45.877Z,100902.34
2023-03-17T13:17:25.928Z,100906.53
2023-03-17T13:20:15.112Z,100902.16
2023-03-17T13:23:10.357Z,100905.28
2023-03-17T13:25:42.969Z,100893.41
2023-03-17T13:28:18.302Z,100893.41
2023-03-17T13:30:59.743Z,100900.06
2023-03-17T13:33:32.910Z,100899.38
2023-03-17T13:36:26.677Z,100896.47
2023-03-17T13:39:18.845Z,100891.22
2023-03-17T13:42:05.553Z,100885.63
2023-03-17T13:45:06.565Z,100890.66
2023-03-17T13:47:36.165Z,100889.22
2023-03-17T13:50:16.327Z,100888.69
2023-03-17T13:52:47.340Z,100884.63
2023-03-17T13:55:23.419Z,100877.56
2023-03-17T13:58:17.970Z,100867.34
2023-03-17T14:00:53.424Z,100870.84
2023-03-17T14:03:34.166Z,100863.69
2023-03-17T14:06:04.870Z,100869.84
2023-03-17T14:08:36.394Z,100871.53
2023-03-17T14:20:53.312Z,100877.50
2023-03-17T14:23:21.426Z,100877.03
2023-03-17T14:25:49.330Z,100875.00
2023-03-17T14:28:17.831Z,100870.44
2023-03-17T14:30:55.636Z,100874.78
2023-03-17T14:33:41.277Z,100854.97
2023-03-17T14:36:14.253Z,100857.44
2023-03-17T14:38:49.268Z,100855.22
2023-03-17T14:41:27.531Z,100853.31
2023-03-17T14:43:58.520Z,100853.06
2023-03-17T14:46:27.585Z,100843.91
2023-03-17T14:49:00.962Z,100847.38
2023-03-17T14:51:32.775Z,100845.25
2023-03-17T14:54:01.330Z,100841.44
2023-03-17T14:56:41.028Z,100835.72
2023-03-17T14:59:16.060Z,100833.03
2023-03-17T15:01:47.553Z,100827.34
2023-03-17T15:04:25.106Z,100831.91
2023-03-17T15:06:59.438Z,100844.34
2023-03-17T15:09:32.034Z,100846.16
2023-03-17T15:12:05.194Z,100837.19
2023-03-17T15:14:34.193Z,100838.66
2023-03-17T15:17:06.481Z,100842.13
2023-03-17T15:19:43.504Z,100831.00
2023-03-17T15:22:29.746Z,100830.22
2023-03-17T15:25:03.788Z,100822.84
2023-03-17T15:27:31.765Z,100831.47
2023-03-17T15:29:58.697Z,100827.66
2023-03-17T15:32:26.930Z,100816.13
2023-03-17T15:34:57.088Z,100815.78
2023-03-17T15:37:26.786Z,100819.72
2023-03-17T15:39:55.201Z,100816.66
2023-03-17T15:42:26.572Z,100806.28
2023-03-17T15:44:53.748Z,100809.75
2023-03-17T15:47:22.828Z,100808.97
2023-03-17T15:49:51.172Z,100809.41
2023-03-17T15:52:26.837Z,100808.97
2023-03-17T15:54:58.215Z,100804.34
2023-03-17T15:57:26.319Z,100798.97
2023-03-17T15:59:53.281Z,100806.72
2023-03-17T16:05:21.200Z,100799.31
2023-03-17T16:07:48.650Z,100794.25
2023-03-17T16:10:18.466Z,100795.06
2023-03-17T16:12:45.279Z,100800.78
2023-03-17T16:15:23.005Z,100805.69
2023-03-17T16:17:54.380Z,100802.09
2023-03-17T16:20:27.498Z,100800.56
2023-03-17T16:22:58.651Z,100807.03
2023-03-17T16:25:29.391Z,100813.88
2023-03-17T16:27:58.020Z,100810.72
2023-03-17T16:30:27.351Z,100814.06
2023-03-17T16:32:55.166Z,100816.75
2023-03-17T16:35:25.646Z,100816.66
2023-03-17T16:37:54.274Z,100819.34
2023-03-17T16:43:30.065Z,100815.75
2023-03-17T16:46:02.568Z,100818.00
2023-03-17T16:48:29.401Z,100821.00
2023-03-17T16:53:51.458Z,100816.97
2023-03-17T16:56:21.412Z,100830.28
2023-03-17T16:58:49.291Z,100826.03
2023-03-17T17:01:19.532Z,100826.34
2023-03-17T17:03:46.825Z,100827.81
2023-03-17T17:06:19.909Z,100831.59
2023-03-17T17:08:48.223Z,100841.13
2023-03-17T17:14:10.770Z,100834.50
2023-03-17T17:16:40.020Z,100830.59
2023-03-17T17:19:14.591Z,100838.19
2023-03-17T17:21:41.216Z,100829.69
2023-03-17T17:24:11.413Z,100818.47
2023-03-17T17:26:38.966Z,100820.72
2023-03-17T17:29:05.894Z,100824.03
2023-03-17T17:31:32.450Z,100831.66
2023-03-17T17:33:59.415Z,100830.75
2023-03-17T17:36:26.839Z,100838.34
2023-03-17T17:38:53.535Z,100837.09
2023-03-17T17:41:22.049Z,100844.72
2023-03-17T17:43:50.091Z,100841.88
2023-03-17T17:46:22.443Z,100845.69
2023-03-17T17:48:49.711Z,100842.56
2023-03-17T17:51:16.477Z,100833.25
2023-03-17T17:53:43.370Z,100840.06
2023-03-17T17:56:17.860Z,100834.56
2023-03-17T17:58:45.347Z,100837.44
2023-03-17T18:01:14.010Z,100839.97
2023-03-17T18:03:42.792Z,100836.81
2023-03-17T18:06:09.901Z,100840.16
2023-03-17T18:08:36.906Z,100839.38
2023-03-17T18:11:03.650Z,100831.97
2023-03-17T18:13:30.445Z,100826.50
2023-03-17T18:15:57.303Z,100824.44
2023-03-17T18:18:23.931Z,100825.13
2023-03-17T18:20:50.983Z,100830.81
2023-03-17T18:23:17.805Z,100831.91
2023-03-17T18:25:44.311Z,100833.81
2023-03-17T18:28:11.651Z,100828.28
2023-03-17T18:30:40.916Z,100830.53
2023-03-17T18:33:15.142Z,100834.34
2023-03-17T18:35:43.751Z,100831.97
2023-03-17T18:38:10.282Z,100840.00
2023-03-17T18:40:37.570Z,100845.69
2023-03-17T18:43:04.963Z,100834.84
2023-03-17T18:45:31.601Z,100839.09
2023-03-17T18:47:58.330Z,100834.50
2023-03-17T18:50:24.984Z,100838.31
2023-03-17T18:52:51.643Z,100840.22
2023-03-17T18:55:18.516Z,100828.25
2023-03-17T18:57:46.574Z,100829.81
2023-03-17T19:00:16.521Z,100833.63
2023-03-17T19:02:43.142Z,100834.72
2023-03-17T19:05:10.550Z,100833.47
2023-03-17T19:07:40.135Z,100838.38
2023-03-17T19:10:08.073Z,100832.53
2023-03-17T19:12:34.682Z,100834.44
2023-03-17T19:15:01.912Z,100835.22
2023-03-17T19:17:28.583Z,100830.97
2023-03-17T19:19:55.322Z,100826.72
2023-03-17T19:22:22.100Z,100827.81
2023-03-17T19:24:50.296Z,100826.25
2023-03-17T19:27:17.908Z,100841.09
2023-03-17T19:29:45.165Z,100832.25
2023-03-17T19:32:12.052Z,100835.91
2023-03-17T19:34:38.669Z,100832.00
2023-03-17T19:37:05.701Z,100826.47
2023-03-17T19:39:33.613Z,100826.78
2023-03-17T19:42:00.210Z,100826.53
2023-03-17T19:44:27.467Z,100834.88
2023-03-17T19:46:54.022Z,100829.53
2023-03-17T19:49:21.293Z,100830.97
2023-03-17T19:51:49.335Z,100837.59
2023-03-17T19:54:16.545Z,100841.41
2023-03-17T19:56:43.176Z,100837.34
2023-03-17T19:59:09.728Z,100834.19
2023-03-17T20:01:38.052Z,100843.31
2023-03-17T20:04:06.987Z,100843.63
2023-03-17T20:06:34.742Z,100844.75
2023-03-17T20:09:04.191Z,100841.63
2023-03-17T20:11:34.040Z,100845.84
2023-03-17T20:14:04.726Z,100851.56
2023-03-17T20:16:33.819Z,100853.78
2023-03-17T20:19:01.257Z,100851.09
2023-03-17T20:21:27.930Z,100853.31
2023-03-17T20:23:54.776Z,100855.22
2023-03-17T20:26:21.394Z,100851.72
2023-03-17T20:28:47.977Z,100859.44
2023-03-17T20:31:14.696Z,100854.25
2023-03-17T20:33:42.219Z,100859.75
2023-03-17T20:36:09.383Z,100863.69
2023-03-17T20:38:39.045Z,100865.28
2023-03-17T20:41:07.679Z,100864.97
2023-03-17T20:43:36.490Z,100872.03
2023-03-17T20:46:09.289Z,100875.03
2023-03-17T20:48:37.350Z,100872.19
2023-03-17T20:51:06.422Z,100877.91
2023-03-17T20:53:34.375Z,100882.91
2023-03-17T20:56:01.017Z,100888.28
2023-03-17T20:58:27.811Z,100884.03
2023-03-17T21:00:55.392Z,100884.34
2023-03-17T21:03:22.264Z,100893.53
2023-03-17T21:05:49.128Z,100903.78
2023-03-17T21:08:16.612Z,100896.97
2023-03-17T21:10:43.198Z,100905.03
2023-03-17T21:13:10.218Z,100899.19
2023-03-17T21:15:36.782Z,100902.69
2023-03-17T21:18:03.734Z,100906.16
2023-03-17T21:20:30.687Z,100904.59
2023-03-17T21:22:57.958Z,100910.72
2023-03-17T21:25:24.815Z,100913.88
2023-03-17T21:27:52.261Z,100915.44
2023-03-17T21:30:19.217Z,100921.75
2023-03-17T21:32:45.900Z,100928.34
2023-03-17T21:35:12.786Z,100922.34
2023-03-17T21:37:39.379Z,100924.06
2023-03-17T21:40:07.046Z,100918.09
2023-03-17T21:42:34.262Z,100917.16
2023-03-17T21:45:01.040Z,100921.84
2023-03-17T21:47:29.380Z,100922.31
2023-03-17T21:49:56.631Z,100935.47
2023-03-17T21:52:23.505Z,100928.69
2023-03-17T21:54:51.027Z,100931.19
2023-03-17T21:57:18.247Z,100939.53
2023-03-17T21:59:45.685Z,100930.84
2023-03-17T22:02:12.805Z,100930.69
2023-03-17T22:04:41.652Z,100936.66
2023-03-17T22:07:08.903Z,100931.13
2023-03-17T22:09:36.127Z,100920.56
2023-03-17T22:12:03.769Z,100923.84
2023-03-17T22:14:31.351Z,100928.72
2023-03-17T22:16:57.903Z,100932.00
2023-03-17T22:19:24.865Z,100934.50
2023-03-17T22:21:51.813Z,100930.56
2023-03-17T22:24:19.115Z,100930.88
2023-03-17T22:26:46.621Z,100925.34
2023-03-17T22:29:14.039Z,100940.91
2023-03-17T22:31:41.313Z,100941.53
2023-03-17T22:34:09.916Z,100955.00
2023-03-17T22:36:37.378Z,100951.38
2023-03-17T22:39:06.909Z,100957.34
2023-03-17T22:41:33.867Z,100960.59
2023-03-17T22:44:00.566Z,100966.25
2023-03-17T22:46:27.596Z,100961.53
2023-03-17T22:48:54.275Z,100960.25
2023-03-17T22:51:23.904Z,100968.56
2023-03-17T22:53:51.862Z,100957.38
2023-03-17T22:56:19.734Z,100964.44
2023-03-17T22:58:47.407Z,100973.06
2023-03-17T23:01:16.316Z,100962.97
2023-03-17T23:03:43.935Z,100965.16
2023-03-17T23:06:11.411Z,100960.44
2023-03-17T23:08:39.669Z,100963.41
2023-03-17T23:11:11.839Z,100973.59
2023-03-17T23:13:41.646Z,100978.44
2023-03-17T23:16:09.497Z,100973.69
2023-03-17T23:18:36.104Z,100975.91
2023-03-17T23:21:04.269Z,100970.84
2023-03-17T23:23:31.494Z,100964.25
2023-03-17T23:25:58.136Z,100962.47
2023-03-17T23:28:25.036Z,100971.88
2023-03-17T23:30:52.340Z,100965.81
2023-03-17T23:33:21.602Z,100975.22
2023-03-17T23:35:50.376Z,100968.91
2023-03-17T23:38:21.915Z,100966.84
2023-03-17T23:40:49.715Z,100955.34
2023-03-17T23:43:16.533Z,100948.72
2023-03-17T23:45:43.682Z,100951.72
2023-03-17T23:48:11.153Z,100952.03
2023-03-17T23:50:41.010Z,100954.19
2023-03-17T23:53:07.667Z,100960.94
2023-03-17T23:55:35.198Z,100958.34
2023-03-17T23:58:02.084Z,100965.66
